createdAt,value
2017-01-23T00:00:12.577Z,20.35
2017-01-23T00:00:42.216Z,20.35
2017-01-23T00:01:11.206Z,20.35
2017-01-23T00:01:39.173Z,20.35
2017-01-23T00:02:07.210Z,20.36
2017-01-23T00:02:35.199Z,20.38
2017-01-23T00:03:03.281Z,20.41
2017-01-23T00:03:31.319Z,20.38
2017-01-23T00:03:59.295Z,20.35
2017-01-23T00:04:27.189Z,20.38
2017-01-23T00:04:55.264Z,20.38
2017-01-23T00:05:23.339Z,20.36
2017-01-23T00:05:52.082Z,20.42
2017-01-23T00:06:20.987Z,20.36
2017-01-23T00:06:49.814Z,20.38
2017-01-23T00:07:17.870Z,20.41
2017-01-23T00:07:45.829Z,20.35
2017-01-23T00:08:14.708Z,20.35
2017-01-23T00:08:43.597Z,20.31
2017-01-23T00:09:11.670Z,20.31
2017-01-23T00:09:40.434Z,20.38
2017-01-23T00:10:08.421Z,20.41
2017-01-23T00:10:37.274Z,20.39
2017-01-23T00:11:05.311Z,20.39
2017-01-23T00:11:35.753Z,20.35
2017-01-23T00:12:04.537Z,20.35
2017-01-23T00:12:32.321Z,20.43
2017-01-23T00:13:00.391Z,20.47
2017-01-23T00:13:28.209Z,20.41
2017-01-23T00:13:56.247Z,20.36
2017-01-23T00:14:25.121Z,20.48
2017-01-23T00:14:53.990Z,20.5
2017-01-23T00:15:22.885Z,20.54
2017-01-23T00:15:51.013Z,20.41
2017-01-23T00:16:19.056Z,20.42
2017-01-23T00:16:46.973Z,20.39
2017-01-23T00:17:14.885Z,20.35
2017-01-23T00:17:45.300Z,20.41
2017-01-23T00:18:13.245Z,20.43
2017-01-23T00:18:42.011Z,20.35
2017-01-23T00:19:10.067Z,20.39
2017-01-23T00:19:38.040Z,20.39
2017-01-23T00:20:06.046Z,20.35
2017-01-23T00:20:33.998Z,20.32
2017-01-23T00:21:02.129Z,20.51
2017-01-23T00:21:31.008Z,20.47
2017-01-23T00:21:59.071Z,20.42
2017-01-23T00:22:26.972Z,20.51
2017-01-23T00:23:33.302Z,20.51
2017-01-23T00:24:02.161Z,20.51
2017-01-23T00:24:30.059Z,20.43
2017-01-23T00:24:59.568Z,20.55
2017-01-23T00:25:27.578Z,20.43
2017-01-23T00:25:55.563Z,20.52
2017-01-23T00:26:24.409Z,20.52
2017-01-23T00:26:52.481Z,20.52
2017-01-23T00:27:20.398Z,20.48
2017-01-23T00:27:48.480Z,20.47
2017-01-23T00:28:17.206Z,20.55
2017-01-23T00:28:45.307Z,20.54
2017-01-23T00:29:13.211Z,20.5
2017-01-23T00:29:41.207Z,20.42
2017-01-23T00:30:09.278Z,20.42
2017-01-23T00:30:37.240Z,20.41
2017-01-23T00:31:06.016Z,20.5
2017-01-23T00:31:35.784Z,20.48
2017-01-23T00:32:03.773Z,20.55
2017-01-23T00:32:32.669Z,20.55
2017-01-23T00:33:01.543Z,20.5
2017-01-23T00:33:29.607Z,20.5
2017-01-23T00:33:57.796Z,20.55
2017-01-23T00:34:25.777Z,20.54
2017-01-23T00:34:53.833Z,20.43
2017-01-23T00:35:22.600Z,20.48
2017-01-23T00:35:50.475Z,20.48
2017-01-23T00:36:18.283Z,20.41
2017-01-23T00:36:46.374Z,20.5
2017-01-23T00:37:15.238Z,20.52
2017-01-23T00:37:44.089Z,20.5
2017-01-23T00:38:12.771Z,20.43
2017-01-23T00:38:41.526Z,20.43
2017-01-23T00:39:09.562Z,20.41
2017-01-23T00:39:37.523Z,20.39
2017-01-23T00:40:05.590Z,20.41
2017-01-23T00:40:34.344Z,20.42
2017-01-23T00:41:02.311Z,20.39
2017-01-23T00:41:30.255Z,20.41
2017-01-23T00:41:59.122Z,20.43
2017-01-23T00:42:27.107Z,20.39
2017-01-23T00:42:56.005Z,20.33
2017-01-23T00:43:24.083Z,20.39
2017-01-23T00:43:52.050Z,20.41
2017-01-23T00:44:20.046Z,20.42
2017-01-23T00:44:48.888Z,20.42
2017-01-23T00:45:16.863Z,20.35
2017-01-23T00:45:44.999Z,20.36
2017-01-23T00:46:13.728Z,20.42
2017-01-23T00:46:42.620Z,20.38
2017-01-23T00:47:10.671Z,20.32
2017-01-23T00:47:38.781Z,20.35
2017-01-23T00:48:06.721Z,20.32
2017-01-23T00:48:37.119Z,20.31
2017-01-23T00:49:04.933Z,20.33
2017-01-23T00:49:32.922Z,20.35
2017-01-23T00:50:01.010Z,20.31
2017-01-23T00:50:29.914Z,20.36
2017-01-23T00:50:57.931Z,20.33
2017-01-23T00:51:25.932Z,20.2
2017-01-23T00:51:53.992Z,20.31
2017-01-23T00:52:21.873Z,20.36
2017-01-23T00:52:49.868Z,20.32
2017-01-23T00:53:17.676Z,20.29
2017-01-23T00:53:45.581Z,20.39
2017-01-23T00:54:14.354Z,20.36
2017-01-23T00:54:42.468Z,20.24
2017-01-23T00:55:10.503Z,20.32
2017-01-23T00:55:38.569Z,20.29
2017-01-23T00:56:06.384Z,20.21
2017-01-23T00:56:34.584Z,20.31
2017-01-23T00:57:02.557Z,20.28
2017-01-23T00:57:31.290Z,20.31
2017-01-23T00:58:00.049Z,20.31
2017-01-23T00:58:28.791Z,20.33
2017-01-23T00:58:56.766Z,20.32
2017-01-23T00:59:24.838Z,20.28
2017-01-23T00:59:52.871Z,20.32
2017-01-23T01:00:20.812Z,20.31
2017-01-23T01:00:48.877Z,20.31
2017-01-23T01:01:16.872Z,20.28
2017-01-23T01:01:45.112Z,20.39
2017-01-23T01:02:51.454Z,20.39
2017-01-23T01:03:19.440Z,20.35
2017-01-23T01:03:47.419Z,20.35
2017-01-23T01:04:17.014Z,20.31
2017-01-23T01:04:45.029Z,20.32
2017-01-23T01:05:13.012Z,20.32
2017-01-23T01:05:41.084Z,20.29
2017-01-23T01:06:10.714Z,20.31
2017-01-23T01:06:39.594Z,20.38
2017-01-23T01:07:07.508Z,20.35
2017-01-23T01:07:36.411Z,20.33
2017-01-23T01:08:04.520Z,20.36
2017-01-23T01:08:32.604Z,20.29
2017-01-23T01:09:00.509Z,20.33
2017-01-23T01:09:29.273Z,20.31
2017-01-23T01:09:57.333Z,20.31
2017-01-23T01:10:25.330Z,20.24
2017-01-23T01:10:54.165Z,20.36
2017-01-23T01:11:22.249Z,20.29
2017-01-23T01:11:50.380Z,20.35
2017-01-23T01:12:18.388Z,20.32
2017-01-23T01:12:46.452Z,20.31
2017-01-23T01:13:15.233Z,20.29
2017-01-23T01:13:44.090Z,20.28
2017-01-23T01:14:12.163Z,20.31
2017-01-23T01:14:42.503Z,20.26
2017-01-23T01:15:11.374Z,20.21
2017-01-23T01:15:39.464Z,20.26
2017-01-23T01:16:07.461Z,20.29
2017-01-23T01:16:35.445Z,20.31
2017-01-23T01:17:03.662Z,20.26
2017-01-23T01:17:32.582Z,20.28
2017-01-23T01:18:01.430Z,20.24
2017-01-23T01:18:29.372Z,20.29
2017-01-23T01:18:57.429Z,20.32
2017-01-23T01:19:25.401Z,20.29
2017-01-23T01:19:53.279Z,20.28
2017-01-23T01:20:21.339Z,20.28
2017-01-23T01:20:50.158Z,20.23
2017-01-23T01:21:18.148Z,20.28
2017-01-23T01:21:46.076Z,20.32
2017-01-23T01:22:14.881Z,20.31
2017-01-23T01:22:42.956Z,20.39
2017-01-23T01:23:10.841Z,20.28
2017-01-23T01:23:39.613Z,20.29
2017-01-23T01:24:07.683Z,20.36
2017-01-23T01:24:35.565Z,20.35
2017-01-23T01:25:03.610Z,20.31
2017-01-23T01:25:31.651Z,20.35
2017-01-23T01:25:59.705Z,20.28
2017-01-23T01:26:28.359Z,20.32
2017-01-23T01:26:56.478Z,20.32
2017-01-23T01:27:25.414Z,20.29
2017-01-23T01:27:53.399Z,20.23
2017-01-23T01:28:22.161Z,20.29
2017-01-23T01:28:51.029Z,20.31
2017-01-23T01:29:19.116Z,20.36
2017-01-23T01:29:47.249Z,20.29
2017-01-23T01:30:15.269Z,20.21
2017-01-23T01:30:43.277Z,20.29
2017-01-23T01:31:11.249Z,20.23
2017-01-23T01:31:40.099Z,20.32
2017-01-23T01:32:09.105Z,20.24
2017-01-23T01:32:37.142Z,20.31
2017-01-23T01:33:04.964Z,20.31
2017-01-23T01:33:33.728Z,20.31
2017-01-23T01:34:04.181Z,20.26
2017-01-23T01:34:32.123Z,20.26
2017-01-23T01:35:00.193Z,20.23
2017-01-23T01:35:28.290Z,20.28
2017-01-23T01:35:56.373Z,20.28
2017-01-23T01:36:24.346Z,20.29
2017-01-23T01:36:52.383Z,20.23
2017-01-23T01:37:20.359Z,20.21
2017-01-23T01:37:48.230Z,20.28
2017-01-23T01:38:16.198Z,20.26
2017-01-23T01:38:44.260Z,20.23
2017-01-23T01:39:12.117Z,20.26
2017-01-23T01:39:40.922Z,20.29
2017-01-23T01:40:09.591Z,20.31
2017-01-23T01:40:37.496Z,20.14
2017-01-23T01:41:05.576Z,20.29
2017-01-23T01:42:12.694Z,20.23
2017-01-23T01:42:40.766Z,20.23
2017-01-23T01:43:08.744Z,20.2
2017-01-23T01:43:37.467Z,20.2
2017-01-23T01:44:05.561Z,20.29
2017-01-23T01:44:33.641Z,20.24
2017-01-23T01:45:02.491Z,20.18
2017-01-23T01:45:30.573Z,20.21
2017-01-23T01:45:58.596Z,20.23
2017-01-23T01:46:26.685Z,20.28
2017-01-23T01:46:54.819Z,20.2
2017-01-23T01:47:22.891Z,20.26
2017-01-23T01:47:52.523Z,20.28
2017-01-23T01:48:21.380Z,20.32
2017-01-23T01:48:49.452Z,20.23
2017-01-23T01:49:17.235Z,20.28
2017-01-23T01:49:45.313Z,20.23
2017-01-23T01:50:13.978Z,20.24
2017-01-23T01:50:41.971Z,20.28
2017-01-23T01:51:10.006Z,20.29
2017-01-23T01:51:38.014Z,20.24
2017-01-23T01:52:06.081Z,20.13
2017-01-23T01:52:34.017Z,20.26
2017-01-23T01:53:02.091Z,20.28
2017-01-23T01:53:30.132Z,20.18
2017-01-23T01:53:58.910Z,20.26
2017-01-23T01:54:27.701Z,20.24
2017-01-23T01:54:55.605Z,20.26
2017-01-23T01:55:23.516Z,20.18
2017-01-23T01:55:51.526Z,20.21
2017-01-23T01:56:19.302Z,20.21
2017-01-23T01:56:47.983Z,20.26
2017-01-23T01:57:18.297Z,20.31
2017-01-23T01:57:47.193Z,20.29
2017-01-23T01:58:15.253Z,20.29
2017-01-23T01:58:44.111Z,20.26
2017-01-23T01:59:13.729Z,20.24
2017-01-23T01:59:41.788Z,20.29
2017-01-23T02:00:10.615Z,20.31
2017-01-23T02:00:39.479Z,20.23
2017-01-23T02:01:08.339Z,20.29
2017-01-23T02:01:37.244Z,20.32
2017-01-23T02:02:06.099Z,20.28
2017-01-23T02:02:35.817Z,20.29
2017-01-23T02:03:03.891Z,20.28
2017-01-23T02:03:31.870Z,20.24
2017-01-23T02:04:00.513Z,20.26
2017-01-23T02:04:28.649Z,20.28
2017-01-23T02:04:57.303Z,20.29
2017-01-23T02:05:26.136Z,20.28
2017-01-23T02:05:55.754Z,20.29
2017-01-23T02:06:24.654Z,20.29
2017-01-23T02:06:52.683Z,20.32
2017-01-23T02:07:21.446Z,20.2
2017-01-23T02:07:49.351Z,20.24
2017-01-23T02:08:17.435Z,20.28
2017-01-23T02:08:46.206Z,20.31
2017-01-23T02:09:15.114Z,20.26
2017-01-23T02:09:44.004Z,20.23
2017-01-23T02:10:12.695Z,20.21
2017-01-23T02:10:41.453Z,20.21
2017-01-23T02:11:09.427Z,20.26
2017-01-23T02:11:38.304Z,20.2
2017-01-23T02:12:06.253Z,20.28
2017-01-23T02:12:34.163Z,20.26
2017-01-23T02:13:02.242Z,20.28
2017-01-23T02:13:31.128Z,20.26
2017-01-23T02:13:59.252Z,20.17
2017-01-23T02:14:27.318Z,20.31
2017-01-23T02:14:56.101Z,20.21
2017-01-23T02:15:24.190Z,20.23
2017-01-23T02:15:51.994Z,20.17
2017-01-23T02:16:19.673Z,20.23
2017-01-23T02:16:49.211Z,20.26
2017-01-23T02:17:17.862Z,20.28
2017-01-23T02:17:46.865Z,20.26
2017-01-23T02:18:14.937Z,20.31
2017-01-23T02:18:43.778Z,20.28
2017-01-23T02:19:12.654Z,20.28
2017-01-23T02:19:42.194Z,20.28
2017-01-23T02:20:10.971Z,20.2
2017-01-23T02:20:38.977Z,20.29
2017-01-23T02:21:45.124Z,20.29
2017-01-23T02:22:13.199Z,20.31
2017-01-23T02:22:42.069Z,20.16
2017-01-23T02:23:10.023Z,20.23
2017-01-23T02:23:39.689Z,20.26
2017-01-23T02:24:07.680Z,20.28
2017-01-23T02:24:36.415Z,20.29
2017-01-23T02:25:04.481Z,20.13
2017-01-23T02:25:33.177Z,20.2
2017-01-23T02:26:02.052Z,20.2
2017-01-23T02:26:30.958Z,20.29
2017-01-23T02:26:58.971Z,20.2
2017-01-23T02:27:27.843Z,20.17
2017-01-23T02:27:56.711Z,20.14
2017-01-23T02:28:24.773Z,20.28
2017-01-23T02:28:52.741Z,20.23
2017-01-23T02:29:21.510Z,20.23
2017-01-23T02:29:50.172Z,20.2
2017-01-23T02:30:18.020Z,20.29
2017-01-23T02:30:45.966Z,20.28
2017-01-23T02:31:13.888Z,20.28
2017-01-23T02:31:42.748Z,20.18
2017-01-23T02:32:10.816Z,20.2
2017-01-23T02:32:39.917Z,20.21
2017-01-23T02:33:07.786Z,20.26
2017-01-23T02:33:36.652Z,20.28
2017-01-23T02:34:04.662Z,20.21
2017-01-23T02:34:32.564Z,20.26
2017-01-23T02:35:01.435Z,20.29
2017-01-23T02:35:30.137Z,20.18
2017-01-23T02:35:58.207Z,20.21
2017-01-23T02:36:26.287Z,20.24
2017-01-23T02:36:54.956Z,20.26
2017-01-23T02:37:22.992Z,20.23
2017-01-23T02:37:52.609Z,20.23
2017-01-23T02:38:20.584Z,20.16
2017-01-23T02:38:49.248Z,20.18
2017-01-23T02:39:17.997Z,20.21
2017-01-23T02:39:45.940Z,20.18
2017-01-23T02:40:14.013Z,20.16
2017-01-23T02:40:41.996Z,20.18
2017-01-23T02:41:10.126Z,20.26
2017-01-23T02:41:39.564Z,20.17
2017-01-23T02:42:07.439Z,20.16
2017-01-23T02:42:35.424Z,20.17
2017-01-23T02:43:04.174Z,20.24
2017-01-23T02:43:33.002Z,20.18
2017-01-23T02:44:01.131Z,20.11
2017-01-23T02:44:29.958Z,20.16
2017-01-23T02:44:57.920Z,20.2
2017-01-23T02:45:27.437Z,20.13
2017-01-23T02:45:55.458Z,20.14
2017-01-23T02:46:23.579Z,20.13
2017-01-23T02:46:51.558Z,20.2
2017-01-23T02:47:21.106Z,20.17
2017-01-23T02:47:49.242Z,20.16
2017-01-23T02:48:17.234Z,20.17
2017-01-23T02:48:45.269Z,20.14
2017-01-23T02:49:13.193Z,20.26
2017-01-23T02:49:42.070Z,20.14
2017-01-23T02:50:10.714Z,20.23
2017-01-23T02:50:38.625Z,20.05
2017-01-23T02:51:06.621Z,20.17
2017-01-23T02:51:34.570Z,20.23
2017-01-23T02:52:04.233Z,20.1
2017-01-23T02:52:32.249Z,20.16
2017-01-23T02:53:01.053Z,20.2
2017-01-23T02:53:28.995Z,20.14
2017-01-23T02:53:57.849Z,20.17
2017-01-23T02:54:25.799Z,20.05
2017-01-23T02:54:53.675Z,20.23
2017-01-23T02:55:23.299Z,20.17
2017-01-23T02:55:51.347Z,20.03
2017-01-23T02:56:20.188Z,20.06
2017-01-23T02:56:48.934Z,20.08
2017-01-23T02:57:17.777Z,20.01
2017-01-23T02:57:45.778Z,19.96
2017-01-23T02:58:14.480Z,20.02
2017-01-23T02:58:42.608Z,19.92
2017-01-23T02:59:10.492Z,20.01
2017-01-23T02:59:39.183Z,19.95
2017-01-23T03:00:07.268Z,19.99
2017-01-23T03:01:13.603Z,19.95
2017-01-23T03:01:41.673Z,19.94
2017-01-23T03:02:09.653Z,19.95
2017-01-23T03:02:37.715Z,19.95
2017-01-23T03:03:05.780Z,19.92
2017-01-23T03:03:35.414Z,19.95
2017-01-23T03:04:04.265Z,19.92
2017-01-23T03:04:32.338Z,19.99
2017-01-23T03:05:00.930Z,19.95
2017-01-23T03:05:29.019Z,19.95
2017-01-23T03:05:56.975Z,19.94
2017-01-23T03:06:24.989Z,19.94
2017-01-23T03:06:53.839Z,19.94
2017-01-23T03:07:22.515Z,19.99
2017-01-23T03:07:51.188Z,19.91
2017-01-23T03:08:19.845Z,19.99
2017-01-23T03:08:47.931Z,19.94
2017-01-23T03:09:15.804Z,19.96
2017-01-23T03:09:46.136Z,19.94
2017-01-23T03:10:14.074Z,19.95
2017-01-23T03:10:42.173Z,19.98
2017-01-23T03:11:11.642Z,19.95
2017-01-23T03:11:40.507Z,19.91
2017-01-23T03:12:08.488Z,19.95
2017-01-23T03:12:37.357Z,19.98
2017-01-23T03:13:05.463Z,19.98
2017-01-23T03:13:33.561Z,19.91
2017-01-23T03:14:02.420Z,19.95
2017-01-23T03:14:30.510Z,19.94
2017-01-23T03:14:59.185Z,19.96
2017-01-23T03:15:27.161Z,19.94
2017-01-23T03:15:56.012Z,19.88
2017-01-23T03:16:24.768Z,19.92
2017-01-23T03:16:53.665Z,19.88
2017-01-23T03:17:21.626Z,19.91
2017-01-23T03:17:50.581Z,20.03
2017-01-23T03:18:19.332Z,19.92
2017-01-23T03:18:47.296Z,19.92
2017-01-23T03:19:15.151Z,19.95
2017-01-23T03:19:43.245Z,19.98
2017-01-23T03:20:11.228Z,19.95
2017-01-23T03:20:40.040Z,19.94
2017-01-23T03:21:07.920Z,19.99
2017-01-23T03:21:36.777Z,20.01
2017-01-23T03:22:04.853Z,19.92
2017-01-23T03:22:32.831Z,19.98
2017-01-23T03:23:01.568Z,19.96
2017-01-23T03:23:30.382Z,19.98
2017-01-23T03:23:58.426Z,19.91
2017-01-23T03:24:27.174Z,20.01
2017-01-23T03:24:55.224Z,19.96
2017-01-23T03:25:23.343Z,19.94
2017-01-23T03:25:51.403Z,19.98
2017-01-23T03:26:20.250Z,19.96
2017-01-23T03:26:48.058Z,20.08
2017-01-23T03:27:16.828Z,19.98
2017-01-23T03:27:45.597Z,20.03
2017-01-23T03:28:13.539Z,20.05
2017-01-23T03:28:42.329Z,20.03
2017-01-23T03:29:11.984Z,19.96
2017-01-23T03:29:40.048Z,19.95
2017-01-23T03:30:08.118Z,19.92
2017-01-23T03:30:36.895Z,19.96
2017-01-23T03:31:05.716Z,20.02
2017-01-23T03:31:33.810Z,19.96
2017-01-23T03:32:02.486Z,19.96
2017-01-23T03:32:31.291Z,20.05
2017-01-23T03:32:59.581Z,20.06
2017-01-23T03:33:28.432Z,20.06
2017-01-23T03:33:56.434Z,20.06
2017-01-23T03:34:25.207Z,20.08
2017-01-23T03:34:53.274Z,20.01
2017-01-23T03:35:21.311Z,20.03
2017-01-23T03:35:50.157Z,19.95
2017-01-23T03:36:18.216Z,19.96
2017-01-23T03:36:46.183Z,19.96
2017-01-23T03:37:15.034Z,20.03
2017-01-23T03:37:44.635Z,19.91
2017-01-23T03:38:12.765Z,19.96
2017-01-23T03:38:40.838Z,20.03
2017-01-23T03:39:08.920Z,19.95
2017-01-23T03:39:36.851Z,19.95
2017-01-23T03:40:43.184Z,19.99
2017-01-23T03:41:12.041Z,19.96
2017-01-23T03:41:40.801Z,19.88
2017-01-23T03:42:09.622Z,19.99
2017-01-23T03:42:38.327Z,19.94
2017-01-23T03:43:06.322Z,19.99
2017-01-23T03:43:35.153Z,19.96
2017-01-23T03:44:03.224Z,19.96
2017-01-23T03:44:32.022Z,19.92
2017-01-23T03:45:00.105Z,19.92
2017-01-23T03:45:28.918Z,20.06
2017-01-23T03:45:57.792Z,19.95
2017-01-23T03:46:26.379Z,19.98
2017-01-23T03:46:54.462Z,19.99
2017-01-23T03:47:22.526Z,19.95
2017-01-23T03:47:50.589Z,19.99
2017-01-23T03:48:18.727Z,19.99
2017-01-23T03:48:47.574Z,19.96
2017-01-23T03:49:16.441Z,19.99
2017-01-23T03:49:44.560Z,19.98
2017-01-23T03:50:12.569Z,20.03
2017-01-23T03:50:41.315Z,19.91
2017-01-23T03:51:09.306Z,19.98
2017-01-23T03:51:38.845Z,19.86
2017-01-23T03:52:06.889Z,19.91
2017-01-23T03:52:34.974Z,19.92
2017-01-23T03:53:04.559Z,19.88
2017-01-23T03:53:32.556Z,19.98
2017-01-23T03:54:01.337Z,19.92
2017-01-23T03:54:29.311Z,19.92
2017-01-23T03:54:57.890Z,19.92
2017-01-23T03:55:26.744Z,19.83
2017-01-23T03:55:54.629Z,19.8
2017-01-23T03:56:22.752Z,19.91
2017-01-23T03:56:50.717Z,19.88
2017-01-23T03:57:18.691Z,19.86
2017-01-23T03:57:47.348Z,19.87
2017-01-23T03:58:15.408Z,19.87
2017-01-23T03:58:44.225Z,19.83
2017-01-23T03:59:12.300Z,19.87
2017-01-23T03:59:40.199Z,19.86
2017-01-23T04:00:09.103Z,19.87
2017-01-23T04:00:37.180Z,19.88
2017-01-23T04:01:05.145Z,19.86
2017-01-23T04:01:34.003Z,19.86
2017-01-23T04:02:02.072Z,19.87
2017-01-23T04:02:31.685Z,19.77
2017-01-23T04:02:59.816Z,19.84
2017-01-23T04:03:28.020Z,19.87
2017-01-23T04:03:55.804Z,19.86
2017-01-23T04:04:23.766Z,19.81
2017-01-23T04:04:52.645Z,19.87
2017-01-23T04:05:20.767Z,19.84
2017-01-23T04:05:48.747Z,19.86
2017-01-23T04:06:16.740Z,19.91
2017-01-23T04:06:45.599Z,19.83
2017-01-23T04:07:13.680Z,19.91
2017-01-23T04:07:41.804Z,19.87
2017-01-23T04:08:10.687Z,19.87
2017-01-23T04:08:39.371Z,19.91
2017-01-23T04:09:07.335Z,19.87
2017-01-23T04:09:36.096Z,19.81
2017-01-23T04:10:04.016Z,19.87
2017-01-23T04:10:31.938Z,19.88
2017-01-23T04:10:59.848Z,19.92
2017-01-23T04:11:27.839Z,19.91
2017-01-23T04:11:56.719Z,19.86
2017-01-23T04:12:24.844Z,19.81
2017-01-23T04:12:52.725Z,19.91
2017-01-23T04:13:20.925Z,19.84
2017-01-23T04:13:50.573Z,19.88
2017-01-23T04:14:19.419Z,19.84
2017-01-23T04:14:47.281Z,19.88
2017-01-23T04:15:15.350Z,19.94
2017-01-23T04:15:43.396Z,19.88
2017-01-23T04:16:11.456Z,19.84
2017-01-23T04:16:39.526Z,19.86
2017-01-23T04:17:09.036Z,19.87
2017-01-23T04:17:37.164Z,19.88
2017-01-23T04:18:05.141Z,19.86
2017-01-23T04:18:34.212Z,19.86
2017-01-23T04:19:02.205Z,19.84
2017-01-23T04:20:08.541Z,19.74
2017-01-23T04:20:36.621Z,19.77
2017-01-23T04:21:04.504Z,19.73
2017-01-23T04:21:33.237Z,19.76
2017-01-23T04:22:01.250Z,19.68
2017-01-23T04:22:29.243Z,19.76
2017-01-23T04:22:57.211Z,19.69
2017-01-23T04:23:25.102Z,19.76
2017-01-23T04:23:53.189Z,19.69
2017-01-23T04:24:22.828Z,19.68
2017-01-23T04:24:52.508Z,19.68
2017-01-23T04:25:20.608Z,19.76
2017-01-23T04:25:48.510Z,19.73
2017-01-23T04:26:17.287Z,19.63
2017-01-23T04:26:46.138Z,19.69
2017-01-23T04:27:15.672Z,19.66
2017-01-23T04:27:43.751Z,19.65
2017-01-23T04:28:11.808Z,19.66
2017-01-23T04:28:40.914Z,19.65
2017-01-23T04:29:09.721Z,19.68
2017-01-23T04:29:38.603Z,19.58
2017-01-23T04:30:06.571Z,19.68
2017-01-23T04:30:34.650Z,19.63
2017-01-23T04:31:02.728Z,19.5
2017-01-23T04:31:31.544Z,19.61
2017-01-23T04:32:00.403Z,19.51
2017-01-23T04:32:28.410Z,19.58
2017-01-23T04:32:56.404Z,19.5
2017-01-23T04:33:24.475Z,19.55
2017-01-23T04:33:52.548Z,19.59
2017-01-23T04:34:21.306Z,19.51
2017-01-23T04:34:49.384Z,19.51
2017-01-23T04:35:19.008Z,19.55
2017-01-23T04:35:47.807Z,19.56
2017-01-23T04:36:16.645Z,19.56
2017-01-23T04:36:46.961Z,19.56
2017-01-23T04:37:14.928Z,19.61
2017-01-23T04:37:42.713Z,19.54
2017-01-23T04:38:10.750Z,19.63
2017-01-23T04:38:38.734Z,19.59
2017-01-23T04:39:07.397Z,19.54
2017-01-23T04:39:36.214Z,19.56
2017-01-23T04:40:05.065Z,19.54
2017-01-23T04:40:33.813Z,19.48
2017-01-23T04:41:01.888Z,19.54
2017-01-23T04:41:29.797Z,19.62
2017-01-23T04:41:57.761Z,19.61
2017-01-23T04:42:25.809Z,19.54
2017-01-23T04:42:54.543Z,19.59
2017-01-23T04:43:22.505Z,19.58
2017-01-23T04:43:51.341Z,19.61
2017-01-23T04:44:19.455Z,19.54
2017-01-23T04:44:47.577Z,19.55
2017-01-23T04:45:15.649Z,19.5
2017-01-23T04:45:43.733Z,19.55
2017-01-23T04:46:12.495Z,19.47
2017-01-23T04:46:41.353Z,19.55
2017-01-23T04:47:09.478Z,19.58
2017-01-23T04:47:37.492Z,19.68
2017-01-23T04:48:06.268Z,19.69
2017-01-23T04:48:35.170Z,19.62
2017-01-23T04:49:03.145Z,19.71
2017-01-23T04:49:31.224Z,19.56
2017-01-23T04:49:59.954Z,19.56
2017-01-23T04:50:27.954Z,19.59
2017-01-23T04:50:56.816Z,19.55
2017-01-23T04:51:26.489Z,19.66
2017-01-23T04:51:54.524Z,19.66
2017-01-23T04:52:22.404Z,19.63
2017-01-23T04:52:50.499Z,19.65
2017-01-23T04:53:18.591Z,19.63
2017-01-23T04:53:47.346Z,19.63
2017-01-23T04:54:15.388Z,19.73
2017-01-23T04:54:44.234Z,19.78
2017-01-23T04:55:13.848Z,19.73
2017-01-23T04:55:42.688Z,19.71
2017-01-23T04:56:10.572Z,19.73
2017-01-23T04:56:38.518Z,19.69
2017-01-23T04:57:06.647Z,19.78
2017-01-23T04:57:35.408Z,19.68
2017-01-23T04:58:03.399Z,19.76
2017-01-23T04:58:32.183Z,19.69
2017-01-23T04:59:38.420Z,19.71
2017-01-23T05:00:06.221Z,19.74
2017-01-23T05:00:34.107Z,19.74
2017-01-23T05:01:02.844Z,19.81
2017-01-23T05:01:31.723Z,19.69
2017-01-23T05:02:00.477Z,19.68
2017-01-23T05:02:29.142Z,19.69
2017-01-23T05:02:58.001Z,19.74
2017-01-23T05:03:25.998Z,19.68
2017-01-23T05:03:54.871Z,19.66
2017-01-23T05:04:22.914Z,19.61
2017-01-23T05:04:51.020Z,19.63
2017-01-23T05:05:19.881Z,19.63
2017-01-23T05:05:47.782Z,19.63
2017-01-23T05:06:15.760Z,19.65
2017-01-23T05:06:43.805Z,19.56
2017-01-23T05:07:11.805Z,19.63
2017-01-23T05:07:39.780Z,19.62
2017-01-23T05:08:08.547Z,19.59
2017-01-23T05:08:36.491Z,19.48
2017-01-23T05:09:04.498Z,19.58
2017-01-23T05:09:32.382Z,19.61
2017-01-23T05:10:00.466Z,19.47
2017-01-23T05:10:28.351Z,19.63
2017-01-23T05:10:57.270Z,19.68
2017-01-23T05:11:25.362Z,19.61
2017-01-23T05:11:54.153Z,19.59
2017-01-23T05:12:22.147Z,19.5
2017-01-23T05:12:50.153Z,19.65
2017-01-23T05:13:18.225Z,19.66
2017-01-23T05:13:46.216Z,19.59
2017-01-23T05:14:14.976Z,19.62
2017-01-23T05:14:43.823Z,19.54
2017-01-23T05:15:12.718Z,19.63
2017-01-23T05:15:41.463Z,19.56
2017-01-23T05:16:10.225Z,19.62
2017-01-23T05:16:39.072Z,19.65
2017-01-23T05:17:07.821Z,19.56
2017-01-23T05:17:36.644Z,19.62
2017-01-23T05:18:04.723Z,19.61
2017-01-23T05:18:32.798Z,19.66
2017-01-23T05:19:01.076Z,19.55
2017-01-23T05:19:29.054Z,19.59
2017-01-23T05:19:57.021Z,19.66
2017-01-23T05:20:25.096Z,19.61
2017-01-23T05:20:53.161Z,19.62
2017-01-23T05:21:21.207Z,19.58
2017-01-23T05:21:50.121Z,19.61
2017-01-23T05:22:18.076Z,19.59
2017-01-23T05:22:46.904Z,19.56
2017-01-23T05:23:15.736Z,19.55
2017-01-23T05:23:44.633Z,19.51
2017-01-23T05:24:12.756Z,19.62
2017-01-23T05:24:40.550Z,19.58
2017-01-23T05:25:08.631Z,19.54
2017-01-23T05:25:36.714Z,19.61
2017-01-23T05:26:05.567Z,19.61
2017-01-23T05:26:34.468Z,19.61
2017-01-23T05:27:02.574Z,19.59
2017-01-23T05:27:30.389Z,19.68
2017-01-23T05:27:59.231Z,19.58
2017-01-23T05:28:27.199Z,19.54
2017-01-23T05:28:56.171Z,19.56
2017-01-23T05:29:24.898Z,19.61
2017-01-23T05:29:52.902Z,19.63
2017-01-23T05:30:21.679Z,19.68
2017-01-23T05:30:51.271Z,19.54
2017-01-23T05:31:19.403Z,19.56
2017-01-23T05:31:47.471Z,19.59
2017-01-23T05:32:17.115Z,19.59
2017-01-23T05:32:46.749Z,19.55
2017-01-23T05:33:14.628Z,19.56
2017-01-23T05:33:42.665Z,19.66
2017-01-23T05:34:12.547Z,19.58
2017-01-23T05:34:40.408Z,19.59
2017-01-23T05:35:08.382Z,19.59
2017-01-23T05:35:37.231Z,19.59
2017-01-23T05:36:05.255Z,19.59
2017-01-23T05:36:34.079Z,19.61
2017-01-23T05:37:02.150Z,19.59
2017-01-23T05:37:31.016Z,19.58
2017-01-23T05:37:59.009Z,19.62
2017-01-23T05:39:05.246Z,19.69
2017-01-23T05:39:33.226Z,19.54
2017-01-23T05:40:01.200Z,19.54
2017-01-23T05:40:29.150Z,19.56
2017-01-23T05:40:58.030Z,19.62
2017-01-23T05:41:26.104Z,19.61
2017-01-23T05:41:55.735Z,19.61
2017-01-23T05:42:23.806Z,19.62
2017-01-23T05:42:51.895Z,19.61
2017-01-23T05:43:20.768Z,19.56
2017-01-23T05:43:49.673Z,19.54
2017-01-23T05:44:17.785Z,19.66
2017-01-23T05:44:45.860Z,19.63
2017-01-23T05:45:14.727Z,19.66
2017-01-23T05:45:42.616Z,19.61
2017-01-23T05:46:10.583Z,19.58
2017-01-23T05:46:38.666Z,19.59
2017-01-23T05:47:07.329Z,19.58
2017-01-23T05:47:35.413Z,19.61
2017-01-23T05:48:03.259Z,19.54
2017-01-23T05:48:32.042Z,19.56
2017-01-23T05:49:00.108Z,19.61
2017-01-23T05:49:28.249Z,19.62
2017-01-23T05:49:56.135Z,19.68
2017-01-23T05:50:24.970Z,19.62
2017-01-23T05:50:52.699Z,19.65
2017-01-23T05:51:20.702Z,19.55
2017-01-23T05:51:48.693Z,19.58
2017-01-23T05:52:17.597Z,19.58
2017-01-23T05:52:46.360Z,19.51
2017-01-23T05:53:15.991Z,19.68
2017-01-23T05:53:44.849Z,19.66
2017-01-23T05:54:12.823Z,19.62
2017-01-23T05:54:40.764Z,19.63
2017-01-23T05:55:09.513Z,19.58
2017-01-23T05:55:37.490Z,19.59
2017-01-23T05:56:05.547Z,19.62
2017-01-23T05:56:33.516Z,19.59
2017-01-23T05:57:02.245Z,19.48
2017-01-23T05:57:30.225Z,19.63
2017-01-23T05:57:58.218Z,19.55
2017-01-23T05:58:26.341Z,19.62
2017-01-23T05:58:54.413Z,19.56
2017-01-23T05:59:22.302Z,19.48
2017-01-23T05:59:50.365Z,19.55
2017-01-23T06:00:18.340Z,19.54
2017-01-23T06:00:47.170Z,19.59
2017-01-23T06:01:15.122Z,19.68
2017-01-23T06:01:43.164Z,19.55
2017-01-23T06:02:12.599Z,19.58
2017-01-23T06:02:41.255Z,19.61
2017-01-23T06:03:09.368Z,19.61
2017-01-23T06:03:37.488Z,19.62
2017-01-23T06:04:05.380Z,19.62
2017-01-23T06:04:35.270Z,19.55
2017-01-23T06:05:04.132Z,19.63
2017-01-23T06:05:32.123Z,19.63
2017-01-23T06:06:00.156Z,19.65
2017-01-23T06:06:29.051Z,19.54
2017-01-23T06:06:57.921Z,19.58
2017-01-23T06:07:26.649Z,19.48
2017-01-23T06:07:54.716Z,19.62
2017-01-23T06:08:22.613Z,19.55
2017-01-23T06:08:50.468Z,19.62
2017-01-23T06:09:18.553Z,19.56
2017-01-23T06:09:46.632Z,19.58
2017-01-23T06:10:14.740Z,19.5
2017-01-23T06:10:42.779Z,19.56
2017-01-23T06:11:10.857Z,19.61
2017-01-23T06:11:39.658Z,19.58